Time;durP1;ratioP1;P1;durP2;ratioP2;P2;SDS_P1;SDS_P2;PMS_P1;PMS_P2;Temp;Humidity;BMP_temperature;BMP_pressure;BME280_temperature;BME280_humidity;BME280_pressure;Samples;Min_cycle;Max_cycle;Signal;HPM_P1;HPM_P2
2023/07/08 00:00:23;;;;;;;1.13;1.13;;;22.80;68.40;;;;;;5069450;28;20053;-79
2023/07/08 00:02:49;;;;;;;1.67;1.58;;;22.80;68.40;;;;;;5048056;28;20087;-79
2023/07/08 00:05:16;;;;;;;1.48;1.40;;;22.80;68.50;;;;;;5048941;28;20526;-79
2023/07/08 00:07:42;;;;;;;1.30;1.20;;;22.80;68.50;;;;;;5043690;28;20026;-78
2023/07/08 00:10:21;;;;;;;1.38;1.38;;;22.80;68.50;;;;;;5034340;28;20120;-79
2023/07/08 00:12:55;;;;;;;1.30;1.30;;;22.80;68.50;;;;;;5026202;28;20148;-79
2023/07/08 00:15:22;;;;;;;1.10;1.10;;;22.80;68.50;;;;;;4992689;28;20392;-79
2023/07/08 00:17:47;;;;;;;1.77;1.17;;;22.80;68.50;;;;;;5029140;28;20060;-79
2023/07/08 00:20:13;;;;;;;1.40;1.30;;;22.80;68.50;;;;;;5049295;28;20482;-79
2023/07/08 00:22:40;;;;;;;1.27;1.20;;;22.80;68.50;;;;;;5067787;28;20029;-79
2023/07/08 00:25:07;;;;;;;1.45;1.35;;;22.80;68.50;;;;;;5022255;28;20087;-79
2023/07/08 00:27:33;;;;;;;1.48;1.38;;;22.80;68.50;;;;;;5065016;28;20052;-79
2023/07/08 00:30:00;;;;;;;1.40;1.30;;;22.80;68.50;;;;;;5047328;28;20045;-79
2023/07/08 00:32:25;;;;;;;1.45;1.35;;;22.80;68.60;;;;;;5036719;28;20414;-79
2023/07/08 00:34:51;;;;;;;1.48;1.38;;;22.80;68.50;;;;;;5034376;28;20033;-79
2023/07/08 00:37:17;;;;;;;1.40;1.30;;;22.80;68.60;;;;;;5068445;28;20482;-79
2023/07/08 00:39:42;;;;;;;1.50;1.40;;;22.80;68.60;;;;;;5020387;28;20045;-79
2023/07/08 00:42:18;;;;;;;1.40;1.40;;;22.80;68.50;;;;;;5042267;28;20038;-79
2023/07/08 00:44:44;;;;;;;1.42;1.33;;;22.80;69.30;;;;;;5020462;28;20064;-79
2023/07/08 00:47:10;;;;;;;1.40;1.30;;;22.80;68.50;;;;;;5031028;28;20041;-79
2023/07/08 00:49:39;;;;;;;1.30;1.30;;;22.80;68.50;;;;;;5033350;28;20040;-79
2023/07/08 00:52:19;;;;;;;1.13;1.10;;;22.80;68.60;;;;;;5065507;28;20041;-79
2023/07/08 00:54:45;;;;;;;1.10;1.10;;;22.80;68.60;;;;;;5022427;28;20084;-79
2023/07/08 00:57:11;;;;;;;1.70;1.60;;;22.80;68.50;;;;;;5015532;28;20037;-79
2023/07/08 00:59:41;;;;;;;1.73;1.63;;;22.80;68.60;;;;;;5027670;28;20087;-79
2023/07/08 01:02:07;;;;;;;1.30;1.30;;;22.80;68.60;;;;;;5028867;28;20601;-79
2023/07/08 01:04:58;;;;;;;1.70;1.60;;;22.80;68.60;;;;;;5034972;28;20094;-78
2023/07/08 01:07:26;;;;;;;1.27;1.27;;;22.80;68.60;;;;;;5025682;28;20041;-79
2023/07/08 01:09:58;;;;;;;1.20;1.20;;;22.80;68.60;;;;;;5034427;28;20124;-79
2023/07/08 01:12:30;;;;;;;1.27;1.17;;;22.80;68.60;;;;;;5037702;28;20041;-79
2023/07/08 01:14:55;;;;;;;1.52;1.42;;;22.80;68.60;;;;;;5058846;28;20043;-78
2023/07/08 01:17:21;;;;;;;1.60;1.50;;;22.80;69.40;;;;;;5014422;28;20131;-79
2023/07/08 01:19:48;;;;;;;1.35;1.30;;;22.80;68.70;;;;;;5036453;28;20077;-79
2023/07/08 01:22:13;;;;;;;1.58;1.48;;;22.80;68.60;;;;;;5012757;28;20117;-79
2023/07/08 01:24:40;;;;;;;1.10;1.10;;;22.80;68.60;;;;;;5011225;28;20396;-79
2023/07/08 01:27:08;;;;;;;1.27;1.27;;;22.70;68.50;;;;;;5031816;28;20049;-79
2023/07/08 01:29:34;;;;;;;1.17;1.13;;;22.80;68.60;;;;;;5028895;28;20045;-79
2023/07/08 01:32:02;;;;;;;1.38;1.27;;;22.80;68.60;;;;;;5016481;28;20045;-79
2023/07/08 01:34:28;;;;;;;1.20;1.20;;;22.80;68.60;;;;;;5029412;28;20049;-79
2023/07/08 01:36:55;;;;;;;1.60;1.50;;;22.80;68.60;;;;;;5030452;28;20099;-79
2023/07/08 01:39:21;;;;;;;1.52;1.42;;;22.80;68.60;;;;;;5043170;28;20053;-79
2023/07/08 01:41:47;;;;;;;1.30;1.30;;;22.70;69.30;;;;;;5031524;28;20135;-79
2023/07/08 01:44:39;;;;;;;1.35;1.25;;;22.80;68.60;;;;;;5028420;28;20620;-79
2023/07/08 01:47:17;;;;;;;1.30;1.25;;;22.80;68.60;;;;;;5024083;28;20123;-79
2023/07/08 01:49:42;;;;;;;1.10;1.10;;;22.80;68.60;;;;;;5032428;28;20100;-79
2023/07/08 01:52:08;;;;;;;1.08;1.08;;;22.80;68.60;;;;;;5033920;28;20052;-79
2023/07/08 01:54:34;;;;;;;0.98;0.98;;;22.80;68.60;;;;;;5028893;28;20104;-79
2023/07/08 01:57:00;;;;;;;1.30;1.30;;;22.80;69.40;;;;;;5030609;28;20046;-79
2023/07/08 01:59:26;;;;;;;1.67;1.58;;;22.80;68.60;;;;;;5025825;28;20025;-79
2023/07/08 02:01:54;;;;;;;1.50;1.40;;;22.70;68.50;;;;;;5031248;28;20044;-79
2023/07/08 02:04:21;;;;;;;1.20;1.20;;;22.70;68.60;;;;;;5014334;28;20049;-79
2023/07/08 02:06:57;;;;;;;1.15;1.15;;;22.80;68.60;;;;;;5032754;28;20053;-79
2023/07/08 02:09:24;;;;;;;1.35;1.25;;;22.80;68.60;;;;;;5043149;28;20033;-79
2023/07/08 02:11:50;;;;;;;1.50;1.40;;;22.80;68.50;;;;;;5032363;28;20037;-79
2023/07/08 02:14:16;;;;;;;1.10;1.10;;;22.70;68.50;;;;;;5017244;28;20052;-79
2023/07/08 02:16:41;;;;;;;1.08;1.08;;;22.80;68.60;;;;;;5031151;28;20498;-79
2023/07/08 02:19:07;;;;;;;1.27;1.27;;;22.70;68.50;;;;;;5035936;28;20043;-79
2023/07/08 02:21:33;;;;;;;1.20;1.20;;;22.70;68.50;;;;;;5015746;28;20045;-79
2023/07/08 02:24:00;;;;;;;1.55;1.45;;;22.70;68.50;;;;;;5033367;28;20072;-79
2023/07/08 02:26:26;;;;;;;1.33;1.33;;;22.70;68.50;;;;;;5028378;28;20064;-79
2023/07/08 02:28:51;;;;;;;1.27;1.20;;;22.70;68.60;;;;;;5029216;28;20407;-79
2023/07/08 02:31:17;;;;;;;1.35;1.25;;;22.70;68.60;;;;;;5032092;28;20491;-79
2023/07/08 02:33:43;;;;;;;1.25;1.23;;;22.70;68.50;;;;;;5035721;28;20115;-79
2023/07/08 02:36:08;;;;;;;1.52;1.42;;;22.80;68.60;;;;;;5027912;28;20041;-79
2023/07/08 02:38:34;;;;;;;1.27;1.27;;;22.70;68.50;;;;;;5030906;28;20033;-79
2023/07/08 02:40:59;;;;;;;1.23;1.23;;;22.70;68.50;;;;;;5030955;28;20117;-79
2023/07/08 02:43:25;;;;;;;1.33;1.33;;;22.70;68.50;;;;;;5024939;28;20047;-79
2023/07/08 02:45:51;;;;;;;1.65;1.55;;;22.70;68.50;;;;;;5031637;28;20029;-79
2023/07/08 02:48:19;;;;;;;1.20;1.20;;;22.70;68.50;;;;;;5036591;28;20485;-79
2023/07/08 02:50:45;;;;;;;1.40;1.30;;;22.70;68.50;;;;;;5033805;28;20514;-79
2023/07/08 02:53:11;;;;;;;1.60;1.50;;;22.70;68.50;;;;;;5015649;28;20037;-79
2023/07/08 02:55:36;;;;;;;1.30;1.30;;;22.70;68.50;;;;;;5029268;28;20416;-79
2023/07/08 02:58:02;;;;;;;1.17;1.17;;;22.70;68.50;;;;;;5035608;28;20053;-79
2023/07/08 03:00:28;;;;;;;1.20;1.00;;;22.70;68.50;;;;;;5032606;28;20406;-79
2023/07/08 03:02:54;;;;;;;0.90;0.90;;;22.70;68.50;;;;;;5034841;28;20030;-79
2023/07/08 03:05:19;;;;;;;1.20;1.20;;;22.70;68.50;;;;;;5017443;28;20033;-79
2023/07/08 03:07:45;;;;;;;1.23;1.13;;;22.70;68.50;;;;;;5033816;28;20044;-79
2023/07/08 03:10:10;;;;;;;1.27;1.27;;;22.70;68.50;;;;;;5030997;28;20053;-79
2023/07/08 03:12:36;;;;;;;0.98;0.98;;;22.70;68.60;;;;;;5020859;28;20041;-79
2023/07/08 03:15:02;;;;;;;0.93;0.93;;;22.70;68.50;;;;;;5047948;28;20443;-79
2023/07/08 03:17:28;;;;;;;1.02;1.02;;;22.70;68.50;;;;;;5025732;28;20036;-79
2023/07/08 03:19:53;;;;;;;1.08;1.08;;;22.70;68.50;;;;;;5031127;28;20049;-79
2023/07/08 03:22:19;;;;;;;1.00;1.00;;;22.70;68.50;;;;;;5035109;28;20033;-79
2023/07/08 03:24:47;;;;;;;1.35;1.25;;;22.70;68.50;;;;;;5037461;28;20059;-79
2023/07/08 03:27:15;;;;;;;1.23;1.17;;;22.70;68.50;;;;;;5029790;28;20520;-79
2023/07/08 03:29:41;;;;;;;1.23;1.20;;;22.70;68.50;;;;;;5026671;28;20048;-79
2023/07/08 03:32:09;;;;;;;1.30;1.30;;;22.70;68.60;;;;;;5031514;28;20061;-79
2023/07/08 03:34:35;;;;;;;1.15;1.10;;;22.70;68.60;;;;;;5014471;28;20652;-79
2023/07/08 03:37:00;;;;;;;1.65;1.35;;;22.70;68.60;;;;;;5026307;28;20093;-79
2023/07/08 03:39:26;;;;;;;1.00;1.00;;;22.70;68.50;;;;;;5030707;28;20045;-79
2023/07/08 03:41:52;;;;;;;1.17;1.13;;;22.70;68.60;;;;;;5029164;28;20041;-79
2023/07/08 03:44:17;;;;;;;1.00;1.00;;;22.70;68.50;;;;;;5026275;28;20041;-79
2023/07/08 03:46:47;;;;;;;1.40;1.40;;;22.70;68.50;;;;;;5027735;28;20124;-79
2023/07/08 03:49:13;;;;;;;2.08;1.00;;;22.70;68.60;;;;;;5031042;28;20040;-79
2023/07/08 03:51:39;;;;;;;1.05;1.05;;;22.70;68.60;;;;;;5013966;28;20580;-79
2023/07/08 03:54:05;;;;;;;1.15;1.15;;;22.70;68.70;;;;;;5045371;28;20045;-79
2023/07/08 03:56:31;;;;;;;1.50;1.40;;;22.70;68.60;;;;;;5027232;28;20052;-79
2023/07/08 03:58:57;;;;;;;1.20;1.20;;;22.70;69.50;;;;;;5032130;28;20033;-79
2023/07/08 04:01:23;;;;;;;1.20;1.20;;;22.70;68.60;;;;;;5046243;28;20503;-79
2023/07/08 04:03:51;;;;;;;1.35;1.35;;;22.70;68.60;;;;;;5011538;28;20045;-79
2023/07/08 04:06:16;;;;;;;1.10;1.10;;;22.70;68.60;;;;;;5026379;28;20045;-79
2023/07/08 04:08:42;;;;;;;1.20;1.20;;;22.70;68.50;;;;;;5034396;28;20051;-79
2023/07/08 04:11:12;;;;;;;1.02;1.02;;;22.70;68.50;;;;;;5016748;28;20045;-79
2023/07/08 04:13:37;;;;;;;1.30;1.30;;;22.70;68.60;;;;;;4991428;28;1080317;-79
2023/07/08 04:16:06;;;;;;;1.15;1.10;;;22.70;68.60;;;;;;5033310;28;20395;-79
2023/07/08 04:18:31;;;;;;;1.23;1.23;;;22.70;68.60;;;;;;5027162;28;20037;-79
2023/07/08 04:20:57;;;;;;;1.02;1.02;;;22.70;68.60;;;;;;5052670;28;20033;-78
2023/07/08 04:23:23;;;;;;;1.13;1.13;;;22.70;68.60;;;;;;5033295;28;20077;-79
2023/07/08 04:25:50;;;;;;;1.08;1.08;;;22.70;68.50;;;;;;5032466;28;20049;-79
2023/07/08 04:28:15;;;;;;;1.17;1.13;;;22.70;68.60;;;;;;5033617;28;20042;-78
2023/07/08 04:30:41;;;;;;;1.10;1.10;;;22.70;68.50;;;;;;5031486;28;20053;-79
2023/07/08 04:33:08;;;;;;;1.50;1.40;;;22.70;69.40;;;;;;5025180;28;20514;-79
2023/07/08 04:35:34;;;;;;;1.42;1.30;;;22.70;68.60;;;;;;5031375;28;20502;-79
2023/07/08 04:38:09;;;;;;;1.40;1.40;;;22.70;68.60;;;;;;5030945;28;20038;-79
2023/07/08 04:40:36;;;;;;;1.20;1.20;;;22.70;68.60;;;;;;5029151;28;20045;-79
2023/07/08 04:43:03;;;;;;;0.90;0.90;;;22.70;68.60;;;;;;5034580;28;20041;-79
2023/07/08 04:45:28;;;;;;;1.30;1.17;;;22.70;68.60;;;;;;5031095;28;20080;-79
2023/07/08 04:47:54;;;;;;;0.90;0.90;;;22.70;68.60;;;;;;5034191;28;20041;-79
2023/07/08 04:50:19;;;;;;;1.20;1.20;;;22.70;68.60;;;;;;5031057;28;20044;-79
2023/07/08 04:52:45;;;;;;;1.10;1.10;;;22.70;68.60;;;;;;5033464;28;20121;-79
2023/07/08 04:55:11;;;;;;;1.20;1.20;;;22.70;68.50;;;;;;5031678;28;20519;-79
2023/07/08 04:57:37;;;;;;;1.00;1.00;;;22.70;68.60;;;;;;5031569;28;20137;-79
2023/07/08 05:00:07;;;;;;;1.40;1.40;;;22.70;68.60;;;;;;5031030;28;20056;-79
2023/07/08 05:02:32;;;;;;;1.30;1.20;;;22.70;68.60;;;;;;5027156;28;20065;-79
2023/07/08 05:04:58;;;;;;;1.10;1.10;;;22.70;68.60;;;;;;5027538;28;20594;-79
2023/07/08 05:07:23;;;;;;;1.55;1.10;;;22.70;68.60;;;;;;5026911;28;20052;-79
2023/07/08 05:09:49;;;;;;;1.13;1.05;;;22.70;68.70;;;;;;5031754;28;20059;-79
2023/07/08 05:12:14;;;;;;;1.10;1.10;;;22.70;68.70;;;;;;5032080;28;20030;-79
2023/07/08 05:14:40;;;;;;;1.05;1.05;;;22.70;68.60;;;;;;5022897;28;20463;-79
2023/07/08 05:17:05;;;;;;;1.30;1.10;;;22.70;68.60;;;;;;5033987;28;20045;-79
2023/07/08 05:19:31;;;;;;;1.08;1.08;;;22.70;68.60;;;;;;5040815;28;20050;-79
2023/07/08 05:21:57;;;;;;;1.20;1.20;;;22.70;68.70;;;;;;5051036;28;20120;-79
2023/07/08 05:24:22;;;;;;;1.00;1.00;;;22.70;68.60;;;;;;5027115;28;20041;-79
2023/07/08 05:26:48;;;;;;;1.17;1.17;;;22.70;68.60;;;;;;5049683;28;20452;-79
2023/07/08 05:29:13;;;;;;;1.10;1.10;;;22.70;68.60;;;;;;5012302;28;20056;-79
2023/07/08 05:31:39;;;;;;;1.02;1.02;;;22.70;68.60;;;;;;5028155;28;20095;-79
2023/07/08 05:34:04;;;;;;;1.15;1.15;;;22.70;68.60;;;;;;5032764;28;20049;-78
2023/07/08 05:36:30;;;;;;;1.00;0.95;;;22.70;68.60;;;;;;5030243;28;20128;-79
2023/07/08 05:38:56;;;;;;;1.20;1.20;;;22.70;68.60;;;;;;5014734;28;20506;-79
2023/07/08 05:41:22;;;;;;;1.33;1.30;;;22.70;68.70;;;;;;5024975;28;20036;-79
2023/07/08 05:43:47;;;;;;;1.00;1.00;;;22.70;68.60;;;;;;5011646;28;20041;-78
2023/07/08 05:46:13;;;;;;;1.27;1.27;;;22.70;68.60;;;;;;5026356;28;20462;-79
2023/07/08 05:48:39;;;;;;;1.10;1.10;;;22.70;68.60;;;;;;5013850;28;20053;-78
2023/07/08 05:51:04;;;;;;;1.00;1.00;;;22.70;68.60;;;;;;5035294;28;20049;-78
2023/07/08 05:53:30;;;;;;;1.10;1.10;;;22.70;68.60;;;;;;5031394;28;20045;-79
2023/07/08 05:55:56;;;;;;;1.05;1.05;;;22.70;68.60;;;;;;5031550;28;20134;-79
2023/07/08 05:58:22;;;;;;;1.30;1.25;;;22.70;68.60;;;;;;5028137;28;20388;-78
2023/07/08 06:00:47;;;;;;;1.00;1.00;;;22.70;68.60;;;;;;5024846;28;20041;-79
2023/07/08 06:03:13;;;;;;;1.02;1.02;;;22.70;68.50;;;;;;5025400;28;20152;-79
2023/07/08 06:05:38;;;;;;;1.25;1.25;;;22.70;68.50;;;;;;5041954;28;20566;-79
2023/07/08 06:08:05;;;;;;;1.20;1.10;;;22.70;68.40;;;;;;5036160;28;20049;-79
2023/07/08 06:10:31;;;;;;;1.10;1.10;;;22.70;68.40;;;;;;5027170;28;20050;-79
2023/07/08 06:12:56;;;;;;;1.30;1.30;;;22.70;68.50;;;;;;5029738;28;20091;-79
2023/07/08 06:15:22;;;;;;;1.10;1.00;;;22.70;68.60;;;;;;5025459;28;20117;-78
2023/07/08 06:17:48;;;;;;;0.90;0.90;;;22.70;68.50;;;;;;5024964;28;20041;-78
2023/07/08 06:20:13;;;;;;;1.05;1.05;;;22.70;68.50;;;;;;5028868;28;20564;-79
2023/07/08 06:22:39;;;;;;;1.30;1.30;;;22.70;68.50;;;;;;5045637;28;20136;-79
2023/07/08 06:25:05;;;;;;;1.00;1.00;;;22.70;68.50;;;;;;5035659;28;20037;-78
2023/07/08 06:27:30;;;;;;;1.02;1.02;;;22.70;68.50;;;;;;5036548;28;20045;-79
2023/07/08 06:29:56;;;;;;;1.00;1.00;;;22.70;68.40;;;;;;5043673;28;20059;-79
2023/07/08 06:32:21;;;;;;;1.33;1.33;;;22.70;68.40;;;;;;5032910;28;20045;-79
2023/07/08 06:34:47;;;;;;;1.20;1.02;;;22.70;68.40;;;;;;5034246;28;20033;-79
2023/07/08 06:37:12;;;;;;;1.05;1.05;;;22.70;68.40;;;;;;5017510;28;20046;-78
2023/07/08 06:39:38;;;;;;;1.10;1.10;;;22.70;68.40;;;;;;5021009;28;20038;-79
2023/07/08 06:42:04;;;;;;;1.15;1.15;;;22.70;68.40;;;;;;5033336;28;20512;-79
2023/07/08 06:44:30;;;;;;;1.42;1.10;;;22.70;68.40;;;;;;5033919;28;20597;-78
2023/07/08 06:46:55;;;;;;;1.00;1.00;;;22.70;68.40;;;;;;5033757;28;20168;-79
2023/07/08 06:49:21;;;;;;;0.93;0.93;;;22.70;68.40;;;;;;5033600;28;20507;-78
2023/07/08 06:51:46;;;;;;;1.10;1.10;;;22.70;69.20;;;;;;5030325;28;20033;-78
2023/07/08 06:54:12;;;;;;;0.90;0.90;;;22.70;68.40;;;;;;5052269;28;20033;-79
2023/07/08 06:56:41;;;;;;;0.93;0.93;;;22.70;68.40;;;;;;5029145;28;20119;-78
2023/07/08 06:59:07;;;;;;;0.98;0.98;;;22.70;68.40;;;;;;5038276;28;20087;-79
2023/07/08 07:01:32;;;;;;;1.15;1.15;;;22.70;68.40;;;;;;5035256;28;20037;-79
2023/07/08 07:03:59;;;;;;;0.98;0.98;;;22.70;68.40;;;;;;5037602;28;20517;-78
2023/07/08 07:06:25;;;;;;;1.05;1.05;;;22.70;68.40;;;;;;5028989;28;20057;-78
2023/07/08 07:08:50;;;;;;;1.23;1.23;;;22.70;68.40;;;;;;5031915;28;20095;-79
2023/07/08 07:11:16;;;;;;;0.90;0.90;;;22.70;68.40;;;;;;5029343;28;20045;-78
2023/07/08 07:13:41;;;;;;;1.00;1.00;;;22.70;68.40;;;;;;5029947;28;20049;-79
2023/07/08 07:16:07;;;;;;;0.90;0.90;;;22.70;68.50;;;;;;5033726;28;20069;-79
2023/07/08 07:18:32;;;;;;;1.08;1.00;;;22.80;68.60;;;;;;5030267;28;20048;-79
2023/07/08 07:20:58;;;;;;;1.13;1.13;;;22.70;68.50;;;;;;5046735;28;20044;-78
2023/07/08 07:23:24;;;;;;;1.33;1.27;;;22.70;68.50;;;;;;5030901;28;20571;-79
2023/07/08 07:25:49;;;;;;;1.23;1.13;;;22.70;68.50;;;;;;5032481;28;20033;-79
2023/07/08 07:28:16;;;;;;;1.00;1.00;;;22.80;68.60;;;;;;5029621;28;20572;-79
2023/07/08 07:30:45;;;;;;;1.08;1.08;;;22.70;68.60;;;;;;5031368;28;20128;-79
2023/07/08 07:33:11;;;;;;;1.10;1.10;;;22.70;68.60;;;;;;5034294;28;20045;-78
2023/07/08 07:35:41;;;;;;;1.17;1.17;;;22.70;68.60;;;;;;5028744;28;20527;-79
2023/07/08 07:38:07;;;;;;;0.95;0.95;;;22.70;68.60;;;;;;5031896;28;20048;-79
2023/07/08 07:40:32;;;;;;;1.10;1.10;;;22.70;68.70;;;;;;5027985;28;20034;-78
2023/07/08 07:42:58;;;;;;;1.05;1.05;;;22.70;68.70;;;;;;5036188;28;20037;-79
2023/07/08 07:45:23;;;;;;;1.40;1.38;;;22.70;68.70;;;;;;5033672;28;20477;-79
2023/07/08 07:47:49;;;;;;;1.15;1.15;;;22.70;68.70;;;;;;5031260;28;20044;-79
2023/07/08 07:50:14;;;;;;;1.67;1.58;;;22.70;68.60;;;;;;5029023;28;20411;-79
2023/07/08 07:52:40;;;;;;;0.90;0.90;;;22.70;68.60;;;;;;5031623;28;20041;-78
2023/07/08 07:55:07;;;;;;;1.05;1.05;;;22.70;68.60;;;;;;5037879;28;20491;-79
2023/07/08 07:57:32;;;;;;;1.30;1.30;;;22.70;68.60;;;;;;5029360;28;20056;-79
2023/07/08 07:59:58;;;;;;;1.05;1.05;;;22.70;68.50;;;;;;5032459;28;20041;-79
2023/07/08 08:02:24;;;;;;;1.20;1.20;;;22.70;68.50;;;;;;5046589;28;20045;-78
2023/07/08 08:04:49;;;;;;;1.83;1.50;;;22.70;68.50;;;;;;5031127;28;20053;-79
2023/07/08 08:07:15;;;;;;;1.27;1.27;;;22.80;68.60;;;;;;5034025;28;20042;-79
2023/07/08 08:09:40;;;;;;;1.10;1.10;;;22.80;68.60;;;;;;5031136;28;20568;-79
2023/07/08 08:12:07;;;;;;;1.00;1.00;;;22.80;68.60;;;;;;5030716;28;20049;-79
2023/07/08 08:14:33;;;;;;;1.10;1.10;;;22.80;68.60;;;;;;5033278;28;20058;-79
2023/07/08 08:16:58;;;;;;;1.10;1.10;;;22.70;68.60;;;;;;5030475;28;20132;-79
2023/07/08 08:19:24;;;;;;;1.10;1.10;;;22.80;68.60;;;;;;5033160;28;20044;-78
2023/07/08 08:21:50;;;;;;;1.17;1.17;;;22.80;68.60;;;;;;5033312;28;20112;-79
2023/07/08 08:24:15;;;;;;;1.25;1.00;;;22.80;68.60;;;;;;5035984;28;20449;-78
2023/07/08 08:26:41;;;;;;;1.10;1.10;;;22.80;69.00;;;;;;5031463;28;20410;-78
2023/07/08 08:29:06;;;;;;;0.98;0.98;;;22.80;68.80;;;;;;5033238;28;20052;-78
2023/07/08 08:31:32;;;;;;;1.10;1.10;;;22.80;68.70;;;;;;5035664;28;20030;-78
2023/07/08 08:33:57;;;;;;;1.00;1.00;;;22.80;68.80;;;;;;5029250;28;20043;-78
2023/07/08 08:36:23;;;;;;;1.15;1.15;;;22.80;68.60;;;;;;5043756;28;20431;-79
2023/07/08 08:38:49;;;;;;;1.27;1.20;;;22.80;68.80;;;;;;5029334;28;20065;-79
2023/07/08 08:41:19;;;;;;;1.27;1.25;;;22.80;68.80;;;;;;5031876;28;20056;-79
2023/07/08 08:43:45;;;;;;;1.38;1.27;;;22.80;68.80;;;;;;5031093;28;20061;-79
2023/07/08 08:46:33;;;;;;;1.00;1.00;;;22.80;68.90;;;;;;5031770;28;20037;-78
2023/07/08 08:49:02;;;;;;;1.17;1.08;;;22.90;68.90;;;;;;5033210;28;20122;-79
2023/07/08 08:51:28;;;;;;;1.15;1.15;;;22.90;68.90;;;;;;5030324;28;20033;-79
2023/07/08 08:53:56;;;;;;;1.50;1.40;;;22.90;68.80;;;;;;5029978;28;20530;-79
2023/07/08 08:56:24;;;;;;;1.00;1.00;;;22.90;69.00;;;;;;5044743;28;20038;-79
2023/07/08 08:59:02;;;;;;;1.52;1.30;;;22.90;69.20;;;;;;5030593;28;20033;-79
2023/07/08 09:01:27;;;;;;;1.40;1.40;;;22.90;69.20;;;;;;5030515;28;20358;-79
2023/07/08 09:04:02;;;;;;;0.90;0.90;;;22.90;69.10;;;;;;5035753;28;20454;-79
2023/07/08 09:06:30;;;;;;;1.08;1.08;;;22.90;69.10;;;;;;5034474;28;20045;-78
2023/07/08 09:08:57;;;;;;;1.08;1.08;;;22.90;69.00;;;;;;5048616;28;20049;-79
2023/07/08 09:11:36;;;;;;;0.90;0.90;;;22.90;69.00;;;;;;5045727;28;20075;-79
2023/07/08 09:14:02;;;;;;;1.00;1.00;;;22.90;68.80;;;;;;5031849;28;20426;-79
2023/07/08 09:16:45;;;;;;;1.17;1.08;;;22.90;69.00;;;;;;5031475;28;20519;-79
2023/07/08 09:19:15;;;;;;;1.02;1.02;;;22.90;68.80;;;;;;5020716;28;20099;-79
2023/07/08 09:21:41;;;;;;;0.90;0.90;;;22.90;68.90;;;;;;5028975;28;20037;-79
2023/07/08 09:24:17;;;;;;;1.10;1.10;;;22.90;69.10;;;;;;5047649;28;20045;-79
2023/07/08 09:26:43;;;;;;;1.15;1.13;;;22.90;69.00;;;;;;5027398;28;20044;-79
2023/07/08 09:29:09;;;;;;;1.23;1.23;;;22.90;68.80;;;;;;5029584;28;20044;-79
2023/07/08 09:31:37;;;;;;;1.00;1.00;;;22.90;68.90;;;;;;5028434;28;20045;-78
2023/07/08 09:34:06;;;;;;;1.08;1.08;;;22.90;68.90;;;;;;5029753;28;20043;-79
2023/07/08 09:36:31;;;;;;;0.80;0.80;;;23.00;69.00;;;;;;5043575;28;20049;-79
2023/07/08 09:38:57;;;;;;;1.00;1.00;;;23.00;69.20;;;;;;5038124;28;20040;-79
2023/07/08 09:41:33;;;;;;;0.80;0.80;;;23.00;68.90;;;;;;5024111;28;20403;-79
2023/07/08 09:44:08;;;;;;;0.88;0.88;;;23.00;68.90;;;;;;5046294;28;20060;-79
2023/07/08 09:46:37;;;;;;;1.00;1.00;;;23.00;68.80;;;;;;5026741;28;20091;-79
2023/07/08 09:49:28;;;;;;;1.02;1.02;;;23.00;69.00;;;;;;5033829;28;20032;-78
2023/07/08 09:51:54;;;;;;;0.90;0.90;;;23.00;68.80;;;;;;5036738;28;20050;-79
2023/07/08 09:54:22;;;;;;;0.90;0.90;;;23.10;68.80;;;;;;5029483;28;20600;-79
2023/07/08 09:57:13;;;;;;;1.05;1.05;;;23.00;68.60;;;;;;5024968;28;20040;-79
2023/07/08 09:59:45;;;;;;;0.90;0.90;;;23.10;68.80;;;;;;5027736;28;20507;-79
2023/07/08 10:02:51;;;;;;;1.15;1.15;;;23.10;69.60;;;;;;5023286;28;20041;-79
2023/07/08 10:05:24;;;;;;;0.80;0.80;;;23.10;68.70;;;;;;4964991;28;20049;-79
2023/07/08 10:07:53;;;;;;;1.23;1.00;;;23.10;68.80;;;;;;4953521;28;20050;-78
2023/07/08 10:10:25;;;;;;;0.77;0.77;;;23.10;68.80;;;;;;4972778;28;20523;-78
2023/07/08 10:12:59;;;;;;;1.00;1.00;;;23.10;68.60;;;;;;4956089;28;20131;-79
2023/07/08 10:15:32;;;;;;;0.80;0.80;;;23.20;68.50;;;;;;4940579;28;20038;-79
2023/07/08 10:17:57;;;;;;;1.00;1.00;;;23.20;68.60;;;;;;4953978;28;20575;-79
2023/07/08 10:20:23;;;;;;;1.67;1.00;;;23.20;68.60;;;;;;4969368;28;20050;-78
2023/07/08 10:23:08;;;;;;;0.88;0.88;;;23.30;68.40;;;;;;4969310;28;20409;-78
2023/07/08 10:25:43;;;;;;;0.88;0.88;;;23.30;68.40;;;;;;4970464;28;20528;-79
2023/07/08 10:28:25;;;;;;;0.98;0.98;;;23.30;68.40;;;;;;4992471;28;20042;-78
2023/07/08 10:31:03;;;;;;;0.93;0.93;;;23.30;69.00;;;;;;4971439;28;20039;-79
2023/07/08 10:33:28;;;;;;;0.90;0.90;;;23.30;68.30;;;;;;4952945;28;20047;-79
2023/07/08 10:36:02;;;;;;;0.90;0.90;;;23.30;68.20;;;;;;4970019;28;20045;-79
2023/07/08 10:38:39;;;;;;;1.20;1.20;;;23.30;68.20;;;;;;4969824;28;20243;-78
2023/07/08 10:41:26;;;;;;;0.82;0.82;;;23.40;68.10;;;;;;4967720;28;20560;-78
2023/07/08 10:44:00;;;;;;;1.05;1.05;;;23.40;68.00;;;;;;5028311;28;20052;-79
2023/07/08 10:46:28;;;;;;;0.80;0.80;;;23.40;68.00;;;;;;5029263;28;20412;-78
2023/07/08 10:49:12;;;;;;;0.90;0.90;;;23.40;67.80;;;;;;5031453;28;20057;-78
2023/07/08 10:51:40;;;;;;;1.10;1.10;;;23.40;67.80;;;;;;5030444;28;20061;-78
2023/07/08 10:54:37;;;;;;;0.80;0.80;;;23.40;67.90;;;;;;5015209;28;20033;-78
2023/07/08 10:57:11;;;;;;;0.88;0.88;;;23.40;68.00;;;;;;5049389;28;20529;-78
2023/07/08 10:59:47;;;;;;;0.90;0.90;;;23.40;67.70;;;;;;5034756;28;20032;-79
2023/07/08 11:02:19;;;;;;;1.20;1.20;;;23.40;68.00;;;;;;5049292;28;20808;-78
2023/07/08 11:05:19;;;;;;;0.90;0.90;;;23.50;67.90;;;;;;5044435;28;20049;-78
2023/07/08 11:07:50;;;;;;;0.90;0.90;;;23.50;67.80;;;;;;5031071;28;20041;-78
2023/07/08 11:10:18;;;;;;;0.73;0.73;;;23.50;67.80;;;;;;5046651;28;20045;-78
2023/07/08 11:13:05;;;;;;;0.95;0.95;;;23.50;67.80;;;;;;5054228;28;20218;-78
2023/07/08 11:15:43;;;;;;;0.85;0.85;;;23.50;67.70;;;;;;5052514;28;20056;-78
2023/07/08 11:18:32;;;;;;;1.00;1.00;;;23.50;67.00;;;;;;5058809;28;20123;-78
2023/07/08 11:21:06;;;;;;;0.70;0.70;;;23.50;67.70;;;;;;5043154;28;20136;-78
2023/07/08 11:23:44;;;;;;;0.73;0.73;;;23.50;67.50;;;;;;5054622;28;20503;-78
2023/07/08 11:26:28;;;;;;;0.65;0.65;;;23.50;67.50;;;;;;5050821;28;20034;-79
2023/07/08 11:28:56;;;;;;;0.90;0.90;;;23.50;67.50;;;;;;5034329;28;20034;-79
2023/07/08 11:31:22;;;;;;;0.85;0.85;;;23.50;67.50;;;;;;5017798;28;20131;-79
2023/07/08 11:33:48;;;;;;;0.80;0.80;;;23.50;68.30;;;;;;5017259;28;20045;-79
2023/07/08 11:36:13;;;;;;;0.90;0.90;;;23.60;67.70;;;;;;5043867;28;20402;-79
2023/07/08 11:38:48;;;;;;;0.90;0.90;;;23.60;67.80;;;;;;5016065;28;20069;-79
2023/07/08 11:41:15;;;;;;;0.88;0.88;;;23.50;67.70;;;;;;5033939;28;20040;-79
2023/07/08 11:43:58;;;;;;;1.00;1.00;;;23.60;67.80;;;;;;5014578;28;20057;-78
2023/07/08 11:46:28;;;;;;;0.80;0.80;;;23.50;67.70;;;;;;5036003;28;20060;-79
2023/07/08 11:48:55;;;;;;;1.00;1.00;;;23.60;67.50;;;;;;5032916;28;20099;-79
2023/07/08 11:51:24;;;;;;;1.00;1.00;;;23.60;67.40;;;;;;5036610;28;20037;-79
2023/07/08 11:53:58;;;;;;;0.80;0.80;;;23.60;67.50;;;;;;5032149;28;20128;-79
2023/07/08 11:56:24;;;;;;;0.70;0.70;;;23.60;67.50;;;;;;5026126;28;20042;-79
2023/07/08 11:58:50;;;;;;;0.80;0.80;;;23.60;67.30;;;;;;5034071;28;20051;-78
2023/07/08 12:01:32;;;;;;;0.57;0.57;;;23.60;67.20;;;;;;5034912;28;20083;-79
2023/07/08 12:04:07;;;;;;;0.80;0.80;;;23.60;67.20;;;;;;5033037;28;20037;-79
2023/07/08 12:06:36;;;;;;;0.80;0.80;;;23.60;67.40;;;;;;5047187;28;20039;-79
2023/07/08 12:09:26;;;;;;;0.80;0.80;;;23.60;67.50;;;;;;5032263;28;20098;-79
2023/07/08 12:11:55;;;;;;;0.85;0.85;;;23.60;67.50;;;;;;5046001;28;20056;-78
2023/07/08 12:14:21;;;;;;;0.85;0.85;;;23.60;67.50;;;;;;4997809;28;20040;-78
2023/07/08 12:16:46;;;;;;;0.80;0.80;;;23.60;67.40;;;;;;5026912;28;20041;-78
2023/07/08 12:19:18;;;;;;;0.80;0.80;;;23.60;67.50;;;;;;5031467;28;20528;-79
2023/07/08 12:21:44;;;;;;;0.82;0.80;;;23.60;67.50;;;;;;5017061;28;20087;-79
2023/07/08 12:24:13;;;;;;;1.40;0.73;;;23.60;67.50;;;;;;5041686;28;20064;-78
2023/07/08 12:26:39;;;;;;;0.80;0.80;;;23.60;67.50;;;;;;5036425;28;20461;-79
2023/07/08 12:29:05;;;;;;;0.90;0.90;;;23.60;67.40;;;;;;5034042;28;20094;-79
2023/07/08 12:31:31;;;;;;;0.60;0.60;;;23.60;67.50;;;;;;5025050;28;20556;-79
2023/07/08 12:33:57;;;;;;;0.85;0.85;;;23.60;67.50;;;;;;5016411;28;20021;-79
2023/07/08 12:36:26;;;;;;;0.80;0.80;;;23.60;67.50;;;;;;5035699;28;20103;-79
2023/07/08 12:38:53;;;;;;;1.00;1.00;;;23.60;68.30;;;;;;4999393;28;20068;-79
2023/07/08 12:41:29;;;;;;;0.88;0.88;;;23.60;67.50;;;;;;5013961;28;20041;-78
2023/07/08 12:43:54;;;;;;;0.70;0.70;;;23.70;67.50;;;;;;5026701;28;20031;-79
2023/07/08 12:46:21;;;;;;;0.60;0.60;;;23.70;67.40;;;;;;5015074;28;20029;-79
2023/07/08 12:48:46;;;;;;;0.65;0.65;;;23.70;67.50;;;;;;5035589;28;20041;-79
2023/07/08 12:51:17;;;;;;;0.60;0.60;;;23.60;67.50;;;;;;5033458;28;20052;-79
2023/07/08 12:53:43;;;;;;;0.80;0.80;;;23.60;67.50;;;;;;5009259;28;20517;-79